createdAt,value
2017-01-27T00:00:17.851Z,0
2017-01-27T00:01:32.209Z,0
2017-01-27T00:02:46.583Z,0
2017-01-27T00:04:00.935Z,0
2017-01-27T00:05:14.066Z,0
2017-01-27T00:06:28.425Z,0
2017-01-27T00:07:42.755Z,0
2017-01-27T00:08:57.154Z,0
2017-01-27T00:10:11.473Z,0
2017-01-27T00:11:25.841Z,0
2017-01-27T00:12:40.187Z,0
2017-01-27T00:13:54.559Z,0
2017-01-27T00:15:08.969Z,0
2017-01-27T00:16:22.700Z,0
2017-01-27T00:17:36.440Z,0
2017-01-27T00:18:50.800Z,0
2017-01-27T00:20:04.520Z,0
2017-01-27T00:21:18.889Z,0
2017-01-27T00:22:32.621Z,0
2017-01-27T00:23:47.010Z,0
2017-01-27T00:25:01.381Z,0
2017-01-27T00:26:15.108Z,0
2017-01-27T00:27:29.482Z,0
2017-01-27T00:28:43.839Z,0
2017-01-27T00:29:58.189Z,0
2017-01-27T00:31:11.938Z,0
2017-01-27T00:32:25.659Z,0
2017-01-27T00:33:40.018Z,0
2017-01-27T00:34:54.382Z,0
2017-01-27T00:36:08.135Z,0
2017-01-27T00:37:21.902Z,0
2017-01-27T00:38:36.279Z,0
2017-01-27T00:39:50.659Z,0
2017-01-27T00:41:04.423Z,0
2017-01-27T00:42:18.820Z,0
2017-01-27T00:43:33.209Z,0
2017-01-27T00:44:46.923Z,0
2017-01-27T00:46:01.296Z,0
2017-01-27T00:47:15.081Z,0
2017-01-27T00:48:29.448Z,0
2017-01-27T00:49:43.778Z,0
2017-01-27T00:50:58.133Z,0
2017-01-27T00:52:11.227Z,0
2017-01-27T00:53:24.994Z,0
2017-01-27T00:54:39.397Z,0
2017-01-27T00:55:53.766Z,0
2017-01-27T00:57:08.130Z,0
2017-01-27T00:58:21.872Z,0
2017-01-27T00:59:36.210Z,0
2017-01-27T01:00:50.566Z,0
2017-01-27T01:02:04.283Z,0
2017-01-27T01:03:17.997Z,0
2017-01-27T01:04:32.351Z,0
2017-01-27T01:05:46.067Z,0
2017-01-27T01:06:59.154Z,0
2017-01-27T01:08:13.522Z,0
2017-01-27T01:09:27.881Z,0
2017-01-27T01:10:42.250Z,0
2017-01-27T01:11:56.650Z,0
2017-01-27T01:13:11.025Z,0
2017-01-27T01:14:25.408Z,0
2017-01-27T01:15:39.738Z,0
2017-01-27T01:16:52.829Z,0
2017-01-27T01:18:07.211Z,0
2017-01-27T01:19:21.561Z,0
2017-01-27T01:20:35.967Z,0
2017-01-27T01:21:50.331Z,0
2017-01-27T01:23:04.026Z,0
2017-01-27T01:24:18.401Z,0
2017-01-27T01:25:32.185Z,0
2017-01-27T01:26:46.565Z,0
2017-01-27T01:28:00.911Z,0
2017-01-27T01:29:15.296Z,0
2017-01-27T01:30:28.995Z,0
2017-01-27T01:31:43.374Z,0
2017-01-27T01:32:57.743Z,0
2017-01-27T01:34:11.458Z,0
2017-01-27T01:35:25.188Z,0
2017-01-27T01:36:39.574Z,0
2017-01-27T01:37:53.895Z,0
2017-01-27T01:39:08.284Z,0
2017-01-27T01:40:21.372Z,0
2017-01-27T01:41:35.720Z,0
2017-01-27T01:42:50.287Z,0
2017-01-27T01:44:04.710Z,0
2017-01-27T01:45:19.081Z,0
2017-01-27T01:46:32.801Z,0
2017-01-27T01:47:47.201Z,0
2017-01-27T01:49:00.936Z,0
2017-01-27T01:50:14.644Z,0
2017-01-27T01:51:29.003Z,0
2017-01-27T01:52:43.387Z,0
2017-01-27T01:53:57.781Z,0
2017-01-27T01:55:11.676Z,0
2017-01-27T01:56:26.071Z,0
2017-01-27T01:57:40.449Z,0
2017-01-27T01:58:54.839Z,0
2017-01-27T02:00:09.196Z,0
2017-01-27T02:01:22.907Z,0
2017-01-27T02:02:37.266Z,0
2017-01-27T02:03:51.639Z,0
2017-01-27T02:05:05.353Z,0
2017-01-27T02:06:19.712Z,0
2017-01-27T02:07:33.614Z,0
2017-01-27T02:08:48.034Z,0
2017-01-27T02:10:02.403Z,0
2017-01-27T02:11:16.133Z,0
2017-01-27T02:12:30.523Z,0
2017-01-27T02:13:44.887Z,0
2017-01-27T02:14:59.277Z,0
2017-01-27T02:16:13.703Z,0
2017-01-27T02:17:27.474Z,0
2017-01-27T02:18:41.904Z,0
2017-01-27T02:19:56.293Z,0
2017-01-27T02:21:10.032Z,0
2017-01-27T02:22:24.392Z,0
2017-01-27T02:23:38.754Z,0
2017-01-27T02:24:53.137Z,0
2017-01-27T02:26:07.501Z,0
2017-01-27T02:27:21.893Z,0
2017-01-27T02:28:35.600Z,0
2017-01-27T02:29:49.324Z,0
2017-01-27T02:31:03.252Z,0
2017-01-27T02:32:16.961Z,0
2017-01-27T02:33:31.370Z,0
2017-01-27T02:34:45.750Z,0
2017-01-27T02:36:00.145Z,0
2017-01-27T02:37:13.889Z,0
2017-01-27T02:38:26.993Z,0
2017-01-27T02:39:40.710Z,0
2017-01-27T02:40:55.076Z,0
2017-01-27T02:42:08.798Z,0
2017-01-27T02:43:21.876Z,0
2017-01-27T02:44:36.250Z,0
2017-01-27T02:45:50.599Z,0
2017-01-27T02:47:04.981Z,0
2017-01-27T02:48:19.325Z,0
2017-01-27T02:49:33.730Z,0
2017-01-27T02:50:47.462Z,0
2017-01-27T02:52:01.837Z,0
2017-01-27T02:53:16.219Z,0
2017-01-27T02:54:30.588Z,0
2017-01-27T02:55:43.684Z,0
2017-01-27T02:56:58.052Z,0
2017-01-27T02:58:11.991Z,0
2017-01-27T02:59:26.357Z,0
2017-01-27T03:00:40.080Z,0
2017-01-27T03:01:53.861Z,0
2017-01-27T03:03:06.985Z,0
2017-01-27T03:04:21.330Z,0
2017-01-27T03:05:35.693Z,0
2017-01-27T03:06:50.065Z,0
2017-01-27T03:08:04.481Z,0
2017-01-27T03:09:18.837Z,0
2017-01-27T03:10:32.570Z,0
2017-01-27T03:11:46.908Z,0
2017-01-27T03:13:00.609Z,0
2017-01-27T03:14:14.975Z,0
2017-01-27T03:15:29.353Z,0
2017-01-27T03:16:43.731Z,0
2017-01-27T03:17:57.473Z,0
2017-01-27T03:19:11.877Z,0
2017-01-27T03:20:25.598Z,0
2017-01-27T03:21:39.987Z,0
2017-01-27T03:22:53.713Z,0
2017-01-27T03:24:08.118Z,0
2017-01-27T03:25:22.490Z,0
2017-01-27T03:26:36.882Z,0
2017-01-27T03:27:51.252Z,0
2017-01-27T03:29:05.627Z,0
2017-01-27T03:30:19.955Z,0
2017-01-27T03:31:33.720Z,0
2017-01-27T03:32:48.114Z,0
2017-01-27T03:34:01.848Z,0
2017-01-27T03:35:15.569Z,0
2017-01-27T03:36:29.959Z,0
2017-01-27T03:37:43.690Z,0
2017-01-27T03:38:58.080Z,0
2017-01-27T03:40:11.773Z,0
2017-01-27T03:41:26.149Z,0
2017-01-27T03:42:40.498Z,0
2017-01-27T03:43:54.853Z,0
2017-01-27T03:45:08.563Z,0
2017-01-27T03:46:22.317Z,0
2017-01-27T03:47:36.051Z,0
2017-01-27T03:48:50.640Z,0
2017-01-27T03:50:04.353Z,0
2017-01-27T03:51:18.766Z,0
2017-01-27T03:52:33.145Z,0
2017-01-27T03:53:47.564Z,0
2017-01-27T03:55:01.278Z,0
2017-01-27T03:56:15.648Z,0
2017-01-27T03:57:30.003Z,0
2017-01-27T03:58:44.375Z,0
2017-01-27T03:59:58.109Z,0
2017-01-27T04:01:12.448Z,0
2017-01-27T04:02:26.169Z,0
2017-01-27T04:03:40.525Z,0
2017-01-27T04:04:54.921Z,0
2017-01-27T04:06:08.006Z,0
2017-01-27T04:07:21.736Z,0
2017-01-27T04:08:35.468Z,0
2017-01-27T04:09:49.851Z,0
2017-01-27T04:11:03.596Z,0
2017-01-27T04:12:17.293Z,0
2017-01-27T04:13:31.049Z,0
2017-01-27T04:14:45.441Z,0
2017-01-27T04:15:59.822Z,0
2017-01-27T04:17:14.351Z,0
2017-01-27T04:18:28.755Z,0
2017-01-27T04:19:43.100Z,0
2017-01-27T04:20:57.481Z,0
2017-01-27T04:22:11.845Z,0
2017-01-27T04:23:25.591Z,0
2017-01-27T04:24:39.296Z,0
2017-01-27T04:25:53.662Z,0
2017-01-27T04:27:08.050Z,0
2017-01-27T04:28:21.812Z,0
2017-01-27T04:29:35.573Z,0
2017-01-27T04:30:49.284Z,0
2017-01-27T04:32:03.695Z,0
2017-01-27T04:33:18.057Z,0
2017-01-27T04:34:31.789Z,0
2017-01-27T04:35:46.189Z,0
2017-01-27T04:36:59.928Z,0
2017-01-27T04:38:14.328Z,0
2017-01-27T04:39:28.046Z,0
2017-01-27T04:40:42.387Z,0
2017-01-27T04:41:56.751Z,0
2017-01-27T04:43:11.069Z,0
2017-01-27T04:44:24.776Z,0
2017-01-27T04:45:39.144Z,0
2017-01-27T04:46:52.876Z,0
2017-01-27T04:48:10.177Z,0
2017-01-27T04:49:24.568Z,0
2017-01-27T04:50:38.943Z,0
2017-01-27T04:51:53.293Z,0
2017-01-27T04:53:07.630Z,0
2017-01-27T04:54:22.021Z,0
2017-01-27T04:55:35.732Z,0
2017-01-27T04:56:50.107Z,0
2017-01-27T04:58:04.482Z,0
2017-01-27T04:59:18.209Z,0
2017-01-27T05:00:31.928Z,0
2017-01-27T05:01:46.287Z,0
2017-01-27T05:03:00.037Z,0
2017-01-27T05:04:14.405Z,0
2017-01-27T05:05:28.745Z,0
2017-01-27T05:06:43.090Z,0
2017-01-27T05:07:57.496Z,0
2017-01-27T05:09:11.260Z,0
2017-01-27T05:10:25.607Z,0
2017-01-27T05:11:39.351Z,0
2017-01-27T05:12:53.690Z,0
2017-01-27T05:14:08.053Z,0
2017-01-27T05:15:22.399Z,0
2017-01-27T05:16:36.756Z,0
2017-01-27T05:17:50.460Z,0
2017-01-27T05:19:04.178Z,0
2017-01-27T05:20:17.898Z,0
2017-01-27T05:21:32.290Z,0
2017-01-27T05:22:46.677Z,0
2017-01-27T05:24:01.065Z,0
2017-01-27T05:25:15.400Z,0
2017-01-27T05:26:29.124Z,0
2017-01-27T05:27:43.486Z,0
2017-01-27T05:28:57.215Z,0
2017-01-27T05:30:11.567Z,0
2017-01-27T05:31:25.939Z,0
2017-01-27T05:32:40.337Z,0
2017-01-27T05:33:54.688Z,0
2017-01-27T05:35:08.403Z,0
2017-01-27T05:36:22.779Z,0
2017-01-27T05:37:36.518Z,0
2017-01-27T05:38:50.881Z,0
2017-01-27T05:40:04.593Z,0
2017-01-27T05:41:18.960Z,0
2017-01-27T05:42:33.315Z,0
2017-01-27T05:43:47.030Z,0
2017-01-27T05:45:00.754Z,0
2017-01-27T05:46:15.137Z,0
2017-01-27T05:47:29.502Z,0
2017-01-27T05:48:43.840Z,0
2017-01-27T05:49:58.210Z,0
2017-01-27T05:51:12.592Z,0
2017-01-27T05:52:25.706Z,0
2017-01-27T05:53:39.418Z,0
2017-01-27T05:54:53.775Z,0
2017-01-27T05:56:07.521Z,0
2017-01-27T05:57:21.279Z,0
2017-01-27T05:58:35.668Z,0
2017-01-27T05:59:50.047Z,0
2017-01-27T06:01:03.804Z,0
2017-01-27T06:02:18.168Z,0
2017-01-27T06:03:32.537Z,0
2017-01-27T06:04:46.891Z,0
2017-01-27T06:06:01.252Z,0
2017-01-27T06:07:15.651Z,0
2017-01-27T06:08:29.347Z,0
2017-01-27T06:09:43.729Z,0
2017-01-27T06:10:57.479Z,0
2017-01-27T06:12:11.201Z,0
2017-01-27T06:13:24.892Z,0
2017-01-27T06:14:39.240Z,0
2017-01-27T06:15:53.595Z,0
2017-01-27T06:17:07.324Z,0
2017-01-27T06:18:21.027Z,0
2017-01-27T06:19:35.415Z,0
2017-01-27T06:20:49.778Z,0
2017-01-27T06:22:04.137Z,0
2017-01-27T06:23:17.856Z,0
2017-01-27T06:24:32.235Z,0
2017-01-27T06:25:46.611Z,0
2017-01-27T06:27:01.005Z,0
2017-01-27T06:28:15.357Z,0
2017-01-27T06:29:29.727Z,0
2017-01-27T06:30:44.189Z,0
2017-01-27T06:31:58.585Z,0
2017-01-27T06:33:12.284Z,0
2017-01-27T06:34:26.606Z,0
2017-01-27T06:35:40.308Z,0
2017-01-27T06:36:54.657Z,0
2017-01-27T06:38:07.732Z,0
2017-01-27T06:39:20.797Z,0
2017-01-27T06:40:35.176Z,0
2017-01-27T06:41:49.539Z,0
2017-01-27T06:43:03.906Z,0
2017-01-27T06:44:18.292Z,0
2017-01-27T06:45:32.634Z,0
2017-01-27T06:46:46.998Z,0
2017-01-27T06:48:00.708Z,0
2017-01-27T06:49:14.438Z,0
2017-01-27T06:50:28.804Z,0
2017-01-27T06:51:43.153Z,0
2017-01-27T06:52:56.907Z,0
2017-01-27T06:54:11.303Z,0
2017-01-27T06:55:25.680Z,0
2017-01-27T06:56:39.390Z,0
2017-01-27T06:57:53.092Z,0
2017-01-27T06:59:07.480Z,0
2017-01-27T07:00:21.188Z,0
2017-01-27T07:01:35.595Z,0
2017-01-27T07:02:49.987Z,0
2017-01-27T07:04:03.713Z,0
2017-01-27T07:05:18.099Z,0
2017-01-27T07:06:32.522Z,0
2017-01-27T07:07:46.922Z,0
2017-01-27T07:09:01.304Z,0
2017-01-27T07:10:15.679Z,0
2017-01-27T07:11:30.018Z,0
2017-01-27T07:12:44.406Z,0
2017-01-27T07:13:57.521Z,0
2017-01-27T07:15:11.248Z,0
2017-01-27T07:16:25.641Z,0
2017-01-27T07:17:40.002Z,0
2017-01-27T07:18:54.359Z,0
2017-01-27T07:20:08.729Z,0
2017-01-27T07:21:23.132Z,0
2017-01-27T07:53:41.041Z,0
2017-01-27T07:54:55.410Z,0
2017-01-27T07:56:09.811Z,0
2017-01-27T07:57:22.239Z,0
2017-01-27T07:58:36.605Z,0
2017-01-27T07:59:50.342Z,0
2017-01-27T08:01:04.060Z,0
2017-01-27T08:02:17.805Z,0
2017-01-27T08:03:32.216Z,0
2017-01-27T08:04:46.633Z,0
2017-01-27T08:06:00.993Z,0
2017-01-27T08:07:14.733Z,0
2017-01-27T08:08:29.116Z,0
2017-01-27T08:09:43.531Z,0
2017-01-27T08:10:57.901Z,0
2017-01-27T08:12:12.260Z,0
2017-01-27T08:13:26.651Z,0
2017-01-27T08:14:40.423Z,0
2017-01-27T08:15:54.786Z,0
2017-01-27T08:17:08.478Z,0
2017-01-27T08:18:22.230Z,4
2017-01-27T08:19:36.583Z,0
2017-01-27T08:20:50.955Z,4
2017-01-27T08:22:04.675Z,4
2017-01-27T08:23:19.008Z,4
2017-01-27T08:24:33.374Z,8
2017-01-27T08:25:47.112Z,8
2017-01-27T08:27:01.497Z,12
2017-01-27T08:28:15.576Z,16
2017-01-27T08:29:29.934Z,20
2017-01-27T08:30:44.283Z,32
2017-01-27T08:31:58.051Z,40
2017-01-27T08:33:11.801Z,52
2017-01-27T08:34:26.156Z,68
2017-01-27T08:35:40.552Z,88
2017-01-27T08:36:54.272Z,116
2017-01-27T08:38:08.611Z,144
2017-01-27T08:39:22.338Z,180
2017-01-27T08:40:36.047Z,208
2017-01-27T08:41:50.425Z,232
2017-01-27T08:43:04.148Z,260
2017-01-27T08:44:18.522Z,300
2017-01-27T08:45:32.893Z,336
2017-01-27T08:46:47.258Z,376
2017-01-27T08:48:00.950Z,424
2017-01-27T08:49:15.272Z,480
2017-01-27T08:50:29.639Z,544
2017-01-27T08:51:43.976Z,640
2017-01-27T08:52:58.317Z,728
2017-01-27T08:54:12.018Z,816
2017-01-27T08:55:25.735Z,936
2017-01-27T08:56:39.630Z,1068
2017-01-27T08:57:54.011Z,1224
2017-01-27T08:59:08.386Z,1440
2017-01-27T09:00:22.111Z,1708
2017-01-27T09:01:36.493Z,1908
2017-01-27T09:02:50.872Z,2068
2017-01-27T09:04:05.262Z,2216
2017-01-27T09:05:19.678Z,2384
2017-01-27T09:06:33.401Z,2576
2017-01-27T09:07:47.767Z,2792
2017-01-27T09:09:01.486Z,3008
2017-01-27T09:10:15.199Z,3224
2017-01-27T09:11:29.586Z,3436
2017-01-27T09:12:43.929Z,3668
2017-01-27T09:13:58.284Z,3980
2017-01-27T09:15:12.646Z,4348
2017-01-27T09:16:27.025Z,4696
2017-01-27T09:17:41.427Z,4956
2017-01-27T09:18:55.232Z,5152
2017-01-27T09:20:08.946Z,5348
2017-01-27T09:21:23.316Z,5612
2017-01-27T09:22:37.690Z,5968
2017-01-27T09:23:52.080Z,6376
2017-01-27T09:25:06.464Z,6792
2017-01-27T09:26:18.895Z,7176
2017-01-27T09:27:33.235Z,7576
2017-01-27T09:28:47.596Z,8060
2017-01-27T09:30:01.977Z,8680
2017-01-27T09:31:15.703Z,9336
2017-01-27T09:32:29.403Z,9992
2017-01-27T09:33:43.756Z,10576
2017-01-27T09:34:57.490Z,11092
2017-01-27T09:36:11.846Z,11568
2017-01-27T09:37:25.612Z,12040
2017-01-27T09:38:38.680Z,12512
2017-01-27T09:39:53.025Z,13020
2017-01-27T09:41:06.745Z,13512
2017-01-27T09:42:21.098Z,13992
2017-01-27T09:43:34.792Z,14556
2017-01-27T09:44:49.172Z,15192
2017-01-27T09:46:03.539Z,16036
2017-01-27T09:47:17.259Z,16960
2017-01-27T09:48:31.626Z,17216
2017-01-27T09:49:46.020Z,17536
2017-01-27T09:51:00.439Z,17984
2017-01-27T09:52:14.802Z,18880
2017-01-27T09:53:28.496Z,20384
2017-01-27T09:54:42.876Z,20160
2017-01-27T09:55:57.335Z,24896
2017-01-27T09:57:11.753Z,28800
2017-01-27T09:58:25.538Z,32992
2017-01-27T09:59:39.904Z,38944
2017-01-27T10:00:54.262Z,38816
2017-01-27T10:02:08.614Z,37664
2017-01-27T10:03:21.693Z,42784
2017-01-27T10:04:35.395Z,33696
2017-01-27T10:05:49.750Z,35648
2017-01-27T10:07:04.140Z,40704
2017-01-27T10:08:17.863Z,42336
2017-01-27T10:09:32.305Z,43136
2017-01-27T10:10:46.666Z,43104
2017-01-27T10:12:01.034Z,37856
2017-01-27T10:13:15.383Z,35552
2017-01-27T10:14:29.761Z,39360
2017-01-27T10:15:43.506Z,41184
2017-01-27T10:16:57.252Z,30368
2017-01-27T10:18:11.610Z,28384
2017-01-27T10:19:25.342Z,33728
2017-01-27T10:20:39.676Z,39008
2017-01-27T10:21:54.081Z,60384
2017-01-27T10:23:08.486Z,59648
2017-01-27T10:24:21.635Z,39296
2017-01-27T10:25:35.381Z,42336
2017-01-27T10:26:49.774Z,34720
2017-01-27T10:28:04.180Z,35776
2017-01-27T10:29:17.902Z,33408
2017-01-27T10:30:32.314Z,31616
2017-01-27T10:31:46.669Z,31744
2017-01-27T10:33:01.216Z,29888
2017-01-27T10:34:14.291Z,30176
2017-01-27T10:35:28.663Z,31360
2017-01-27T10:36:43.070Z,31264
2017-01-27T10:37:56.769Z,27456
2017-01-27T10:39:11.184Z,29920
2017-01-27T10:40:25.543Z,28128
2017-01-27T10:41:39.942Z,26592
2017-01-27T10:42:54.297Z,27680
2017-01-27T10:44:08.630Z,29984
2017-01-27T10:45:21.690Z,32128
2017-01-27T10:46:35.385Z,31296
2017-01-27T10:47:49.118Z,28736
2017-01-27T10:49:03.464Z,28352
2017-01-27T10:50:17.837Z,28768
2017-01-27T10:51:32.205Z,29536
2017-01-27T10:52:46.586Z,30144
2017-01-27T10:54:00.962Z,29760
2017-01-27T10:55:14.733Z,29248
2017-01-27T10:56:28.467Z,29856
2017-01-27T10:57:42.876Z,30208
2017-01-27T10:58:57.279Z,41984
2017-01-27T11:00:11.000Z,32480
2017-01-27T11:01:24.088Z,28384
2017-01-27T11:02:38.470Z,28832
2017-01-27T11:03:52.805Z,31008
2017-01-27T11:05:07.189Z,43616
2017-01-27T11:06:21.561Z,48800
2017-01-27T11:07:35.928Z,51392
2017-01-27T11:08:50.288Z,102464
2017-01-27T11:10:04.051Z,102624
2017-01-27T11:11:17.828Z,103968
2017-01-27T11:12:32.189Z,110656
2017-01-27T11:13:46.525Z,76224
2017-01-27T11:15:00.892Z,57632
2017-01-27T11:16:15.298Z,49120
2017-01-27T11:17:29.658Z,48480
2017-01-27T11:18:44.044Z,47136
2017-01-27T11:19:58.433Z,62016
2017-01-27T11:21:12.842Z,48800
2017-01-27T11:22:27.200Z,47776
2017-01-27T11:23:41.589Z,45536
2017-01-27T11:24:55.340Z,43584
2017-01-27T11:26:09.722Z,44384
2017-01-27T11:27:24.077Z,44160
2017-01-27T11:28:38.425Z,42240
2017-01-27T11:29:52.817Z,41088
2017-01-27T11:31:06.547Z,42528
2017-01-27T11:32:19.634Z,42816
2017-01-27T11:33:34.042Z,44576
2017-01-27T11:34:47.750Z,42080
2017-01-27T11:36:02.110Z,40000
2017-01-27T11:37:15.206Z,37312
2017-01-27T11:38:29.579Z,35776
2017-01-27T11:39:43.921Z,37216
2017-01-27T11:40:58.301Z,35488
2017-01-27T11:42:11.378Z,34592
2017-01-27T11:43:25.803Z,33024
2017-01-27T11:44:40.181Z,32096
2017-01-27T11:45:53.953Z,32864
2017-01-27T11:47:07.669Z,32288
2017-01-27T11:48:53.030Z,26784
2017-01-27T11:50:06.795Z,24864
2017-01-27T11:51:19.225Z,23008
2017-01-27T11:52:33.022Z,21920
2017-01-27T11:53:47.453Z,22912
2017-01-27T11:55:01.857Z,23712
2017-01-27T11:56:16.282Z,22976
2017-01-27T11:57:30.673Z,21728
2017-01-27T11:58:44.409Z,22752
2017-01-27T11:59:58.797Z,26176
2017-01-27T12:01:13.205Z,28640
2017-01-27T12:02:27.011Z,29696
2017-01-27T12:03:41.400Z,30816
2017-01-27T12:04:55.796Z,30592
2017-01-27T12:06:09.553Z,29408
2017-01-27T12:07:22.016Z,27840
2017-01-27T12:08:36.598Z,26976
2017-01-27T12:09:51.037Z,27200
2017-01-27T12:11:05.441Z,28064
2017-01-27T12:12:19.845Z,29568
2017-01-27T12:13:33.574Z,30560
2017-01-27T12:14:47.301Z,31072
2017-01-27T12:16:01.665Z,31328
2017-01-27T12:17:16.094Z,32928
2017-01-27T12:18:29.832Z,38400
2017-01-27T12:19:43.558Z,53952
2017-01-27T12:20:57.946Z,83648
2017-01-27T12:22:11.076Z,80928
2017-01-27T12:23:24.846Z,80608
2017-01-27T12:24:38.589Z,104480
2017-01-27T12:25:53.020Z,92064
2017-01-27T12:27:06.795Z,61600
2017-01-27T12:28:19.878Z,56672
2017-01-27T12:29:34.335Z,46848
2017-01-27T12:30:48.672Z,34848
2017-01-27T12:32:03.047Z,30112
2017-01-27T12:33:17.789Z,32192
2017-01-27T12:34:32.183Z,35488
2017-01-27T12:35:46.523Z,41056
2017-01-27T12:37:00.868Z,48544
2017-01-27T12:38:14.591Z,80032
2017-01-27T12:39:28.992Z,75776
2017-01-27T12:40:43.406Z,113152
2017-01-27T12:41:57.841Z,78720
2017-01-27T12:43:12.559Z,72832
2017-01-27T12:44:26.345Z,62592
2017-01-27T12:45:40.892Z,51392
2017-01-27T12:46:55.373Z,55008
2017-01-27T12:48:09.156Z,121600
2017-01-27T12:49:24.260Z,116896
2017-01-27T12:50:38.616Z,88832
2017-01-27T12:51:53.007Z,83648
2017-01-27T12:53:07.362Z,56160
2017-01-27T12:54:21.761Z,57536
2017-01-27T12:55:36.112Z,48640
2017-01-27T12:56:49.840Z,67904
2017-01-27T12:58:04.250Z,44288
2017-01-27T12:59:18.656Z,43328
2017-01-27T13:00:33.085Z,46592
2017-01-27T13:01:47.467Z,48416
2017-01-27T13:03:01.815Z,45696
2017-01-27T13:04:16.262Z,46496
2017-01-27T13:05:30.646Z,48064
2017-01-27T13:06:45.068Z,42688
2017-01-27T13:07:59.443Z,36128
2017-01-27T13:09:13.207Z,33632
2017-01-27T13:10:27.008Z,34368
2017-01-27T13:11:40.743Z,37280
2017-01-27T13:12:55.132Z,40800
2017-01-27T13:14:09.495Z,44672
2017-01-27T13:15:23.339Z,49312
2017-01-27T13:16:38.193Z,68576
2017-01-27T13:17:52.819Z,58592
2017-01-27T13:19:06.555Z,47168
2017-01-27T13:20:20.946Z,41536
2017-01-27T13:21:34.709Z,37184
2017-01-27T13:22:49.066Z,33504
2017-01-27T13:24:03.488Z,29504
2017-01-27T13:25:18.082Z,26048
2017-01-27T13:26:32.449Z,23840
2017-01-27T13:27:46.856Z,22912
2017-01-27T13:29:00.606Z,21632
2017-01-27T13:30:14.351Z,19744
2017-01-27T13:31:28.752Z,18976
2017-01-27T13:32:43.117Z,19360
2017-01-27T13:33:56.857Z,20704
2017-01-27T13:35:10.619Z,23392
2017-01-27T13:36:26.136Z,28224
2017-01-27T13:37:40.527Z,34560
2017-01-27T13:38:55.865Z,43840
2017-01-27T13:40:10.283Z,53472
2017-01-27T13:41:24.040Z,61184
2017-01-27T13:42:37.793Z,60480
2017-01-27T13:43:52.146Z,62752
2017-01-27T13:45:06.512Z,68640
2017-01-27T13:46:21.466Z,81216
2017-01-27T13:47:35.981Z,80704
2017-01-27T13:48:50.381Z,74464
2017-01-27T13:50:04.752Z,73536
2017-01-27T13:51:18.496Z,70304
2017-01-27T13:52:32.858Z,75904
2017-01-27T13:53:46.579Z,72800
2017-01-27T13:55:00.932Z,51648
2017-01-27T13:56:15.324Z,44480
2017-01-27T13:57:29.695Z,41664
2017-01-27T13:58:44.079Z,41632
2017-01-27T13:59:58.454Z,43712
2017-01-27T14:01:12.163Z,48864
2017-01-27T14:02:26.539Z,57440
2017-01-27T14:03:40.943Z,60288
2017-01-27T14:04:54.673Z,47840
2017-01-27T14:06:07.756Z,40896
2017-01-27T14:07:20.852Z,36928
2017-01-27T14:08:35.280Z,33728
2017-01-27T14:09:49.664Z,32992
2017-01-27T14:11:04.035Z,32128
2017-01-27T14:12:17.743Z,32800
2017-01-27T14:13:32.112Z,32064
2017-01-27T14:14:46.459Z,30976
2017-01-27T14:16:00.863Z,32320
2017-01-27T14:17:15.236Z,33088
2017-01-27T14:18:29.587Z,36160
2017-01-27T14:19:43.966Z,39264
2017-01-27T14:20:58.293Z,41792
2017-01-27T14:22:12.719Z,41856
2017-01-27T14:23:27.108Z,39584
2017-01-27T14:24:40.897Z,37984
2017-01-27T14:25:55.245Z,38848
2017-01-27T14:27:09.642Z,45120
2017-01-27T14:28:24.060Z,50432
2017-01-27T14:29:37.785Z,52576
2017-01-27T14:30:52.157Z,54816
2017-01-27T14:32:05.875Z,52512
2017-01-27T14:33:21.331Z,49632
2017-01-27T14:34:35.060Z,50848
2017-01-27T14:35:48.809Z,49600
2017-01-27T14:37:04.992Z,38464
2017-01-27T14:38:18.777Z,27552
2017-01-27T14:39:33.149Z,21792
2017-01-27T14:40:47.539Z,21504
2017-01-27T14:42:01.274Z,25984
2017-01-27T14:43:14.391Z,30560
2017-01-27T14:44:28.755Z,29824
2017-01-27T14:45:42.511Z,22848
2017-01-27T14:46:56.874Z,14732
2017-01-27T14:48:11.241Z,9084
2017-01-27T14:49:24.959Z,6248
2017-01-27T14:50:39.331Z,5192
2017-01-27T14:51:53.715Z,5268
2017-01-27T14:53:07.489Z,5992
2017-01-27T14:54:21.889Z,6804
2017-01-27T14:55:36.314Z,7844
2017-01-27T14:56:50.692Z,10380
2017-01-27T14:58:05.082Z,14180
2017-01-27T14:59:18.853Z,18272
2017-01-27T15:00:33.429Z,21664
2017-01-27T15:01:47.810Z,23008
2017-01-27T15:03:02.199Z,22656
2017-01-27T15:04:15.923Z,21888
2017-01-27T15:05:30.337Z,21312
2017-01-27T15:06:44.706Z,20288
2017-01-27T15:07:59.075Z,18272
2017-01-27T15:09:13.444Z,16160
2017-01-27T15:10:27.816Z,14480
2017-01-27T15:11:42.207Z,13192
2017-01-27T15:12:56.581Z,12132
2017-01-27T15:14:10.307Z,11684
2017-01-27T15:15:24.683Z,11948
2017-01-27T15:16:39.064Z,12356
2017-01-27T15:17:53.488Z,12452
2017-01-27T15:19:07.214Z,12240
2017-01-27T15:20:20.963Z,12280
2017-01-27T15:21:35.364Z,12840
2017-01-27T15:22:49.780Z,13788
2017-01-27T15:24:04.117Z,16552
2017-01-27T15:25:18.476Z,20256
2017-01-27T15:26:33.434Z,23392
2017-01-27T15:27:49.657Z,26688
2017-01-27T15:29:04.010Z,29664
2017-01-27T15:30:17.702Z,31840
2017-01-27T15:31:32.092Z,32928
2017-01-27T15:32:45.895Z,31872
2017-01-27T15:34:00.262Z,28704
2017-01-27T15:35:13.360Z,25152
2017-01-27T15:36:27.753Z,22400
2017-01-27T15:37:41.505Z,20800
2017-01-27T15:38:55.908Z,22432
2017-01-27T15:40:09.640Z,27776
2017-01-27T15:41:23.323Z,32192
2017-01-27T15:42:37.685Z,31840
2017-01-27T15:43:52.095Z,29760
2017-01-27T15:45:06.443Z,27424
2017-01-27T15:46:20.827Z,26336
2017-01-27T15:47:34.594Z,27296
2017-01-27T15:48:48.982Z,28896
2017-01-27T15:50:02.886Z,30400
2017-01-27T15:51:14.694Z,32224
2017-01-27T15:52:28.414Z,34080
2017-01-27T15:53:43.500Z,34656
2017-01-27T15:54:57.280Z,34240
2017-01-27T15:56:11.609Z,33856
2017-01-27T15:57:25.982Z,33120
2017-01-27T15:58:39.107Z,31904
2017-01-27T15:59:52.838Z,30400
2017-01-27T16:01:07.224Z,27424
2017-01-27T16:02:21.635Z,23520
2017-01-27T16:03:35.992Z,20320
2017-01-27T16:04:50.355Z,18816
2017-01-27T16:06:04.708Z,17644
2017-01-27T16:07:17.991Z,16416
2017-01-27T16:08:32.352Z,15280
2017-01-27T16:09:46.770Z,14532
2017-01-27T16:11:01.207Z,14408
2017-01-27T16:12:15.001Z,13764
2017-01-27T16:13:28.791Z,12576
2017-01-27T16:14:43.172Z,10956
2017-01-27T16:15:57.569Z,9812
2017-01-27T16:17:11.996Z,9352
2017-01-27T16:18:25.766Z,8776
2017-01-27T16:19:40.119Z,8852
2017-01-27T16:20:53.839Z,9376
2017-01-27T16:22:07.554Z,9820
2017-01-27T16:23:21.305Z,10000
2017-01-27T16:24:35.683Z,10576
2017-01-27T16:25:50.070Z,11572
2017-01-27T16:27:04.434Z,12268
2017-01-27T16:28:17.504Z,13168
2017-01-27T16:29:31.867Z,13776
2017-01-27T16:30:46.232Z,15188
2017-01-27T16:32:00.596Z,16496
2017-01-27T16:33:14.946Z,15660
2017-01-27T16:34:29.332Z,13872
2017-01-27T16:35:43.684Z,11164
2017-01-27T16:36:58.052Z,9688
2017-01-27T16:38:11.776Z,8880
2017-01-27T16:39:26.167Z,7000
2017-01-27T16:40:40.548Z,5404
2017-01-27T16:41:54.935Z,5408
2017-01-27T16:43:09.310Z,6672
2017-01-27T16:44:22.375Z,7772
2017-01-27T16:45:36.718Z,9764
2017-01-27T16:46:51.046Z,10748
2017-01-27T16:48:05.445Z,10296
2017-01-27T16:49:18.560Z,10004
2017-01-27T16:50:32.334Z,9340
2017-01-27T16:51:46.696Z,8752
2017-01-27T16:53:01.123Z,8840
2017-01-27T16:54:15.508Z,10260
2017-01-27T16:55:29.260Z,12544
2017-01-27T16:56:43.101Z,14856
2017-01-27T16:57:57.507Z,17488
2017-01-27T16:59:11.875Z,21600
2017-01-27T17:00:25.607Z,26848
2017-01-27T17:01:39.978Z,33120
2017-01-27T17:02:53.724Z,37408
2017-01-27T17:04:08.109Z,36800
2017-01-27T17:05:21.158Z,31968
2017-01-27T17:06:35.511Z,26240
2017-01-27T17:07:49.891Z,21440
2017-01-27T17:09:04.231Z,17084
2017-01-27T17:10:18.603Z,13192
2017-01-27T17:11:32.970Z,10804
2017-01-27T17:12:47.439Z,9900
2017-01-27T17:14:01.824Z,10312
2017-01-27T17:15:15.003Z,11420
2017-01-27T17:16:29.346Z,12528
2017-01-27T17:17:43.676Z,13372
2017-01-27T17:18:58.075Z,13268
2017-01-27T17:20:11.837Z,13012
2017-01-27T17:21:25.590Z,13296
2017-01-27T17:22:40.007Z,13272
2017-01-27T17:23:54.381Z,12376
2017-01-27T17:25:08.728Z,11008
2017-01-27T17:26:22.516Z,9580
2017-01-27T17:27:36.529Z,9712
2017-01-27T17:28:50.926Z,9440
2017-01-27T17:30:05.323Z,8704
2017-01-27T17:31:19.640Z,7544